Have a Safe July 4th! 

Flight Track Log - Related Links

Times and Time Zones

All times are in EDT time to prevent confusion due to time zone crossing. See the SKW2648 flight status page for this flight to view local times or setup timezone preferences in your user account.

Time Position Orientation Groundspeed Altitude Reporting Facility
EDT Latitude Longitude Course Direction KTS MPH feet Rate Location/Type
Mon 10:00:21 PM 41.9667 -87.9500 340° North 171 197 1,600  Level Chicago TRACON
Mon 10:01:27 PM 42.0333 -87.9833 340° North 226 260 4,000 1,838 Climbing Chicago TRACON
Mon 10:02:12 PM 42.0689 -88.0106 330° Northwest 229 264 5,000 673 Climbing Chicago Center
Mon 10:03:14 PM 42.1344 -88.0492 336° Northwest 254 292 5,200 1,220 Climbing Chicago Center
Mon 10:04:15 PM 42.2164 -88.0556 357° North 272 313 7,500 2,146 Climbing Chicago Center
Mon 10:05:17 PM 42.2967 -88.0633 356° North 289 333 9,600 1,951 Climbing Chicago Center
Mon 10:06:18 PM 42.3692 -88.0739 354° North 291 335 11,500 1,951 Climbing Chicago Center
Mon 10:07:20 PM 42.4711 -88.0839 356° North 304 350 13,600 1,694 Climbing Chicago Center
Mon 10:08:22 PM 42.5531 -88.0636 10° North 316 364 15,000 829 Climbing Chicago Center
Mon 10:09:23 PM 42.6172 -87.9644 49° Northeast 345 397 15,300 683 Climbing Chicago Center
Mon 10:10:25 PM 42.6861 -87.8556 49° Northeast 373 429 16,400 1,024 Climbing Chicago Center
Mon 10:11:26 PM 42.7553 -87.7483 49° Northeast 375 432 17,400 1,122 Climbing Chicago Center
Mon 10:12:28 PM 42.8219 -87.6361 51° Northeast 381 438 18,700 1,220 Climbing Chicago Center
Mon 10:13:29 PM 42.8414 -87.4947 79° East 382 440 19,900 1,131 Climbing Chicago Center
Mon 10:14:30 PM 42.8589 -87.3411 81° East 386 444 21,000 1,024 Climbing Chicago Center
Mon 10:15:32 PM 42.8744 -87.1936 82° East 389 448 22,000 976 Climbing Chicago Center
Mon 10:16:33 PM 42.8903 -87.0439 82° East 396 456 23,000 1,073 Climbing Chicago Center
Mon 10:17:35 PM 42.9083 -86.8658 82° East 397 457 24,200 976 Climbing Chicago Center
Mon 10:18:36 PM 42.9239 -86.7150 82° East 399 459 25,000 787 Climbing Chicago Center
Mon 10:19:37 PM 42.9392 -86.5636 82° East 401 461 25,800 732 Climbing Chicago Center
Mon 10:20:39 PM 42.9544 -86.4114 82° East 402 463 26,500 634 Climbing Chicago Center
Mon 10:21:40 PM 42.9689 -86.2572 83° East 409 471 27,100 585 Climbing Chicago Center
Mon 10:22:42 PM 42.9822 -86.1047 83° East 409 471 27,700 634 Climbing Chicago Center
Mon 10:23:43 PM 43.0019 -85.9225 82° East 421 484 28,400 590 Climbing Chicago Center
Mon 10:24:44 PM 43.0161 -85.7636 83° East 422 486 28,900 488 Climbing Chicago Center
Mon 10:25:46 PM 43.0308 -85.6036 83° East 426 490 29,400 488 Climbing Chicago Center
Mon 10:26:47 PM 43.0453 -85.4458 83° East 424 488 29,900 492 Climbing Chicago Center
Mon 10:27:48 PM 43.0597 -85.2811 83° East 426 490 30,400 488 Climbing Chicago Center
Mon 10:28:50 PM 43.0739 -85.1242 83° East 427 491 30,900 488 Climbing Chicago Center
Mon 10:29:51 PM 43.0881 -84.9625 83° East 427 491 31,400 529 Climbing Chicago Center
Mon 10:30:32 PM 43.0983 -84.8353 84° East 428 493 31,800 529 Climbing Cleveland Center
Mon 10:31:33 PM 43.1119 -84.6739 83° East 428 493 32,300 537 Climbing Cleveland Center
Mon 10:32:35 PM 43.1244 -84.5131 84° East 428 493 32,900 341 Climbing Cleveland Center
Mon 10:33:36 PM 43.1383 -84.3425 84° East 424 488 33,000 49 Climbing Cleveland Center
Mon 10:34:37 PM 43.1517 -84.1767 84° East 436 502 33,000  Level Cleveland Center
Mon 10:35:39 PM 43.1644 -84.0069 84° East 444 511 33,000  Level Cleveland Center
Mon 10:36:40 PM 43.1775 -83.8372 84° East 447 514 33,000  Level Cleveland Center
Mon 10:37:41 PM 43.1903 -83.6672 84° East 447 514 33,000  Level Cleveland Center
Mon 10:38:43 PM 43.2031 -83.4961 84° East 448 516 33,000  Level Cleveland Center
Mon 10:39:44 PM 43.2150 -83.3253 84° East 448 516 33,000  Level Cleveland Center
Mon 10:40:46 PM 43.2267 -83.1539 85° East 448 516 33,000  Level Cleveland Center
Mon 10:41:31 PM 43.2333 -82.9667 87° East 450 518 33,000  Level Toronto Center
Mon 10:42:31 PM 43.2333 -82.8167 90° East 450 518 33,000  Level Toronto Center
Mon 10:43:31 PM 43.2667 -82.6333 76° East 450 518 33,000  Level Toronto Center
Mon 10:44:31 PM 43.2833 -82.4667 82° East 440 506 33,000  Level Toronto Center
Mon 10:45:31 PM 43.3000 -82.3167 81° East 440 506 33,000  Level Toronto Center
Mon 10:46:31 PM 43.3167 -82.1500 82° East 440 506 33,000  Level Toronto Center
Mon 10:47:31 PM 43.3333 -82.0000 81° East 440 506 33,000  Level Toronto Center
Mon 10:48:31 PM 43.3833 -81.8167 69° East 440 506 33,000  Level Toronto Center
Mon 10:49:31 PM 43.4000 -81.6500 82° East 440 506 33,000  Level Toronto Center
Mon 10:50:31 PM 43.4167 -81.5000 81° East 440 506 33,000  Level Toronto Center
Mon 10:51:31 PM 43.4333 -81.3167 83° East 440 506 33,000  Level Toronto Center
Mon 10:52:31 PM 43.4500 -81.1500 82° East 440 506 33,000  Level Toronto Center
Mon 10:53:31 PM 43.4667 -80.9833 82° East 440 506 33,000  Level Toronto Center
Mon 10:54:31 PM 43.4833 -80.8333 81° East 440 506 33,000  Level Toronto Center
Mon 10:55:31 PM 43.5333 -80.6500 69° East 440 506 33,000  Level Toronto Center
Mon 10:56:31 PM 43.5500 -80.4833 82° East 440 506 33,000  Level Toronto Center
Mon 10:57:31 PM 43.5667 -80.3167 82° East 440 506 33,000  Level Toronto Center
Mon 10:58:31 PM 43.5833 -80.1667 81° East 440 506 33,000  Level Toronto Center
Mon 10:59:31 PM 43.6000 -80.0000 82° East 440 506 33,000  Level Toronto Center
Mon 11:00:31 PM 43.6167 -79.8167 83° East 440 506 33,000  Level Toronto Center
Mon 11:01:31 PM 43.6500 -79.6500 74° East 450 518 33,000  Level Toronto Center
Mon 11:02:31 PM 43.6667 -79.5000 81° East 460 529 33,000  Level Toronto Center
Mon 11:03:31 PM 43.7167 -79.3167 69° East 430 495 33,000  Level Toronto Center
Mon 11:04:31 PM 43.7333 -79.1667 81° East 440 506 33,000  Level Toronto Center
Mon 11:05:31 PM 43.7667 -78.9833 76° East 440 506 33,000  Level Toronto Center
Mon 11:06:31 PM 43.8167 -78.8167 67° East 440 506 33,000  Level Toronto Center
Mon 11:07:31 PM 43.8667 -78.6833 62° Northeast 440 506 33,000  Level Toronto Center
Mon 11:08:31 PM 43.9167 -78.5167 67° East 440 506 33,000  Level Toronto Center
Mon 11:09:31 PM 43.9500 -78.3667 73° East 440 506 33,000  Level Toronto Center
Mon 11:10:31 PM 44.0000 -78.2000 67° East 440 506 33,000  Level Toronto Center
Mon 11:11:31 PM 44.0500 -78.0500 65° Northeast 440 506 33,000  Level Toronto Center
Mon 11:12:31 PM 44.1167 -77.8833 61° Northeast 440 506 33,000  Level Toronto Center
Mon 11:13:31 PM 44.1667 -77.7500 62° Northeast 440 506 33,000  Level Toronto Center
Mon 11:14:31 PM 44.2167 -77.5833 67° East 440 506 33,000  Level Toronto Center
Mon 11:15:31 PM 44.2667 -77.4167 67° East 440 506 33,000  Level Toronto Center
Mon 11:16:31 PM 44.3000 -77.2833 71° East 440 506 33,000  Level Toronto Center
Mon 11:17:31 PM 44.3500 -77.1167 67° East 440 506 33,000  Level Toronto Center
Mon 11:18:31 PM 44.4000 -76.9500 67° East 440 506 33,000  Level Toronto Center
Mon 11:19:31 PM 44.4500 -76.7833 67° East 440 506 33,000  Level Toronto Center
Mon 11:20:31 PM 44.4833 -76.6333 73° East 440 506 33,000  Level Toronto Center
Mon 11:21:31 PM 44.5333 -76.4667 67° East 440 506 33,000  Level Toronto Center
Mon 11:22:31 PM 44.5833 -76.3000 67° East 440 506 33,000  Level Toronto Center
Mon 11:23:31 PM 44.6333 -76.1667 62° Northeast 440 506 33,000  Level Toronto Center
Mon 11:24:31 PM 44.6667 -76.0000 74° East 440 506 33,000  Level Toronto Center
Mon 11:25:31 PM 44.7167 -75.8333 67° East 440 506 33,000  Level Toronto Center
Mon 11:26:31 PM 44.7833 -75.6833 58° Northeast 440 506 33,000  Level Toronto Center
Mon 11:27:31 PM 44.8167 -75.5333 73° East 440 506 33,000  Level Toronto Center
Mon 11:28:31 PM 44.8667 -75.3667 67° East 440 506 33,000 -600 Level Toronto Center
Mon 11:29:31 PM 44.9333 -75.2333 55° Northeast 440 506 31,800 -2,200 Descending Toronto Center
Mon 11:30:31 PM 44.9667 -75.0667 74° East 450 518 28,600 -3,050 Descending Toronto Center
Mon 11:31:31 PM 45.0333 -74.9167 58° Northeast 440 506 25,700 -3,050 Descending Toronto Center
Mon 11:32:31 PM 45.0833 -74.7500 67° East 430 495 22,500 -3,000 Descending Toronto Center
Mon 11:33:31 PM 45.1167 -74.6000 72° East 430 495 19,700 -2,900 Descending Toronto Center
Mon 11:34:31 PM 45.1667 -74.4500 65° Northeast 410 472 16,700 -2,950 Descending Toronto Center
Mon 11:35:31 PM 45.2167 -74.3333 59° Northeast 390 449 13,800 -2,600 Descending Toronto Center
Mon 11:36:31 PM 45.2667 -74.1833 65° Northeast 360 414 11,500 -1,750 Descending Toronto Center
Mon 11:37:31 PM 45.3167 -74.0833 55° Northeast 310 357 10,300 -1,409 Descending Toronto Center
Mon 11:39:00 PM 45.3833 -73.9833 46° Northeast 300 345 8,000 -966 Descending Montreal Center
Mon 11:40:00 PM 45.4500 -73.9167 35° Northeast 280 322 7,900 -750 Descending Montreal Center
Mon 11:41:00 PM 45.5000 -73.8333 49° Northeast 280 322 6,500 -1,500 Descending Montreal Center
Mon 11:42:00 PM 45.5667 -73.7667 35° Northeast 250 288 4,900 -1,550 Descending Montreal Center
Mon 11:43:00 PM 45.6167 -73.7000 43° Northeast 250 288 3,400 -1,000 Descending Montreal Center
Mon 11:44:00 PM 45.6000 -73.6167 106° East 200 230 2,900 -450 Descending Montreal Center
Mon 11:45:00 PM 45.5500 -73.6167 180° South 180 207 2,500 -800 Descending Montreal Center
Mon 11:46:00 PM 45.5167 -73.6667 226° Southwest 150 173 1,300 -950 Descending Montreal Center
Mon 11:47:00 PM 45.4833 -73.7000 215° Southwest 130 150 600 -600 Descending Montreal Center
Mon 11:48:00 PM 45.4667 -73.7500 245° Southwest 130 150 100 -500 Descending Montreal Center

Login

Don't have an account? Register now (free) for customized features, flight alerts, and more!